Vinton, Louisiana
Current Conditions -  °F | °C
As of 3:55 PM on Tuesday 25 Nov 2014 (Local Time) from KUXL Reporting Station
Clear Clear  
Wind Chill: 59°   Ceiling: Unl
Heat Index: 59°   Visibility: 10mi
Dew Point: 33°   Wind: 6mph
Humidity: 37%   Direction: 310°NW
Pressure: 30.22"   Gusts: NA
Location:  30.19°N, 93.58°W
Report Text: KUXL 252155Z AUTO 31005KT 10SM CLR 15/01 A3022 RMK AO2 T01520007
Loading
Personal Weather Stations






























Interactive Weather Map New forecast layout! Learn more

10-Day Weather Forecast

Advertisements
Track Severe Weather on mobile